Time;durP1;ratioP1;P1;durP2;ratioP2;P2;SDS_P1;SDS_P2;PMS_P1;PMS_P2;Temp;Humidity;BMP_temperature;BMP_pressure;BME280_temperature;BME280_humidity;BME280_pressure;Samples;Min_cycle;Max_cycle;Signal;HPM_P1;HPM_P2
2022/05/13 00:02:27;;;;;;;1.63;0.73;;;;;;;14.20;75.86;99615.19;8248284;28;20058;-71
2022/05/13 00:06:29;;;;;;;4.30;1.25;;;;;;;14.12;76.47;99609.22;8249038;28;20114;-71
2022/05/13 00:10:30;;;;;;;1.27;0.50;;;;;;;14.07;76.35;99614.50;8230306;28;20069;-71
2022/05/13 00:14:32;;;;;;;1.48;0.50;;;;;;;14.01;76.60;99614.59;8235546;28;20074;-71
2022/05/13 00:18:34;;;;;;;3.55;0.50;;;;;;;13.99;77.60;99628.53;8243425;28;20051;-71
2022/05/13 00:22:45;;;;;;;3.60;0.70;;;;;;;13.99;77.54;99628.53;8250909;28;20459;-70
2022/05/13 00:26:47;;;;;;;4.85;0.70;;;;;;;13.98;78.42;99624.22;8235433;28;20050;-71
2022/05/13 00:30:48;;;;;;;3.45;0.60;;;;;;;14.01;78.49;99626.81;8230943;28;20051;-70
2022/05/13 00:34:50;;;;;;;1.77;0.52;;;;;;;13.99;78.95;99623.31;8245474;28;20085;-70
2022/05/13 00:38:51;;;;;;;0.40;0.40;;;;;;;14.04;79.27;99617.16;8244019;28;20346;-71
2022/05/13 00:42:59;;;;;;;4.82;0.57;;;;;;;14.07;78.12;99629.31;8248365;28;20050;-71
2022/05/13 00:47:01;;;;;;;3.55;0.60;;;;;;;14.11;78.32;99620.53;8249656;28;20047;-70
2022/05/13 00:51:05;;;;;;;6.25;2.35;;;;;;;14.14;78.10;99620.50;8262835;28;20058;-71
2022/05/13 00:55:14;;;;;;;2.65;0.60;;;;;;;14.15;78.08;99614.38;8246593;28;20143;-71
2022/05/13 00:59:20;;;;;;;2.10;0.65;;;;;;;14.11;78.94;99616.19;8250564;28;20376;-71
2022/05/13 01:03:22;;;;;;;1.70;0.73;;;;;;;14.11;78.68;99615.31;8232273;28;20413;-72
2022/05/13 01:07:24;;;;;;;1.35;0.65;;;;;;;14.08;78.43;99612.75;8252769;28;20046;-72
2022/05/13 01:11:28;;;;;;;2.93;1.07;;;;;;;14.11;78.08;99610.09;8250185;28;20683;-71
2022/05/13 01:15:36;;;;;;;1.92;0.60;;;;;;;14.07;78.51;99611.91;8246043;28;20304;-71
2022/05/13 01:19:37;;;;;;;0.90;0.55;;;;;;;14.06;78.26;99609.31;8249491;28;20465;-71
2022/05/13 01:23:45;;;;;;;2.37;0.63;;;;;;;13.99;79.29;99610.28;8235848;28;20093;-71
2022/05/13 01:27:47;;;;;;;2.80;0.60;;;;;;;13.96;79.53;99598.13;8245328;28;20070;-72
2022/05/13 01:31:49;;;;;;;1.67;0.60;;;;;;;13.90;79.15;99603.44;8250017;28;20081;-72
2022/05/13 01:35:53;;;;;;;1.25;0.40;;;;;;;13.86;80.19;99607.00;8235244;28;20050;-71
2022/05/13 01:39:55;;;;;;;1.25;0.60;;;;;;;13.87;80.53;99598.28;8254281;28;20065;-71
2022/05/13 01:43:56;;;;;;;3.00;0.52;;;;;;;13.81;80.42;99588.75;8254942;28;20042;-71
2022/05/13 01:47:58;;;;;;;2.47;0.50;;;;;;;13.81;80.61;99587.91;8251744;28;20074;-71
2022/05/13 01:52:00;;;;;;;2.38;0.52;;;;;;;13.81;80.34;99577.47;8236894;28;20296;-71
2022/05/13 01:56:02;;;;;;;3.60;0.80;;;;;;;13.74;80.75;99592.34;8238749;28;20077;-72
2022/05/13 02:00:08;;;;;;;3.30;0.47;;;;;;;13.67;80.45;99582.03;8244637;28;20090;-71
2022/05/13 02:04:10;;;;;;;1.83;0.60;;;;;;;13.58;80.60;99581.25;8249181;28;20042;-72
2022/05/13 02:08:12;;;;;;;2.78;0.60;;;;;;;13.55;81.43;99590.88;8241765;28;20146;-71
2022/05/13 02:12:13;;;;;;;4.75;1.35;;;;;;;13.55;81.02;99593.50;8245587;28;20698;-71
2022/05/13 02:16:15;;;;;;;1.60;0.53;;;;;;;13.55;81.59;99591.75;8238532;28;20074;-71
2022/05/13 02:20:17;;;;;;;;;;;;;;;13.63;81.78;99599.47;8266696;28;20107;-71
2022/05/13 02:24:18;;;;;;;0.55;0.43;;;;;;;13.63;81.51;99601.22;8260099;28;19965;-72
2022/05/13 02:28:20;;;;;;;2.60;0.50;;;;;;;13.65;81.78;99605.53;8254218;28;20048;-72
2022/05/13 02:32:21;;;;;;;1.20;0.40;;;;;;;13.70;81.50;99610.69;8249071;28;20280;-72
2022/05/13 02:36:24;;;;;;;4.60;0.73;;;;;;;13.72;81.08;99608.94;8236940;28;20089;-71
2022/05/13 02:41:11;;;;;;;4.53;0.60;;;;;;;13.75;81.38;99608.88;8252537;28;20350;-72
2022/05/13 02:44:47;;;;;;;4.50;0.57;;;;;;;13.80;81.15;99618.34;8250617;28;20050;-72
2022/05/13 02:48:49;;;;;;;3.37;0.50;;;;;;;13.79;81.93;99610.56;8255613;28;20078;-71
2022/05/13 02:52:51;;;;;;;1.80;0.70;;;;;;;13.80;81.19;99618.34;8260059;28;20145;-72
2022/05/13 02:56:52;;;;;;;2.47;0.57;;;;;;;13.85;81.71;99621.78;8252729;28;20035;-71
2022/05/13 03:00:53;;;;;;;2.40;0.67;;;;;;;13.91;81.44;99620.84;8249150;28;20812;-72
2022/05/13 03:04:55;;;;;;;3.27;0.93;;;;;;;13.91;80.84;99619.09;8239889;28;20457;-71
2022/05/13 03:08:57;;;;;;;2.20;0.60;;;;;;;13.94;80.97;99620.78;8254941;28;20346;-72
2022/05/13 03:13:00;;;;;;;4.13;0.60;;;;;;;13.98;80.67;99614.63;8236750;28;20046;-72
2022/05/13 03:17:04;;;;;;;5.18;1.33;;;;;;;14.00;80.98;99609.38;8246785;28;20057;-71
2022/05/13 03:21:05;;;;;;;2.33;1.00;;;;;;;14.01;80.86;99608.53;8247981;28;20393;-71
2022/05/13 03:25:07;;;;;;;2.08;0.65;;;;;;;14.00;80.83;99605.03;8249700;28;20406;-72
2022/05/13 03:29:09;;;;;;;1.42;0.50;;;;;;;13.98;79.94;99605.94;8247772;28;20085;-71
2022/05/13 03:33:10;;;;;;;1.85;0.52;;;;;;;13.86;80.15;99614.81;8233190;28;20145;-71
2022/05/13 03:37:12;;;;;;;2.00;0.60;;;;;;;13.74;80.30;99613.22;8234328;28;20074;-72
2022/05/13 03:41:14;;;;;;;1.52;0.75;;;;;;;13.63;80.48;99609.91;8231059;28;20049;-71
2022/05/13 03:45:18;;;;;;;1.40;0.67;;;;;;;13.50;80.45;99624.88;8245874;28;20373;-71
2022/05/13 03:49:19;;;;;;;1.88;0.68;;;;;;;13.38;79.92;99622.41;8251321;28;20066;-71
2022/05/13 03:53:21;;;;;;;1.43;0.63;;;;;;;13.33;79.55;99633.78;8242992;28;20074;-71
2022/05/13 03:57:22;;;;;;;2.17;0.65;;;;;;;13.27;79.13;99635.56;8238897;28;20431;-72
2022/05/13 04:01:24;;;;;;;2.55;0.60;;;;;;;13.25;78.43;99639.94;8238315;28;20054;-72
2022/05/13 04:09:45;;;;;;;3.42;0.52;;;;;;;13.09;77.69;99648.75;8222145;28;20042;-72
2022/05/13 04:18:07;;;;;;;3.45;0.60;;;;;;;13.10;76.41;99654.84;8236585;28;20047;-72
2022/05/13 04:22:13;;;;;;;2.67;1.05;;;;;;;13.00;76.99;99652.34;8242971;28;20190;-72
2022/05/13 04:26:15;;;;;;;1.65;0.65;;;;;;;13.02;76.19;99662.75;8238952;28;20523;-72
2022/05/13 04:30:17;;;;;;;;;;;;;;;12.99;77.42;99666.25;8254574;28;20138;-72
2022/05/13 04:34:19;;;;;;;1.33;0.70;;;;;;;13.03;77.00;99667.09;8225810;28;19936;-72
2022/05/13 04:38:20;;;;;;;3.05;0.70;;;;;;;13.06;76.00;99664.44;8247315;28;21013;-72
2022/05/13 04:46:43;;;;;;;5.22;1.13;;;;;;;13.13;75.42;99668.72;8242974;28;20054;-72
2022/05/13 04:50:48;;;;;;;3.23;0.90;;;;;;;13.22;74.54;99668.66;8246834;28;20082;-72
2022/05/13 04:54:49;;;;;;;1.13;0.63;;;;;;;13.30;73.90;99668.59;8231001;28;20133;-72
2022/05/13 04:58:51;;;;;;;118.88;15.15;;;;;;;13.46;72.64;99675.31;8229814;28;20137;-72
2022/05/13 05:02:53;;;;;;;171.18;14.25;;;;;;;13.58;71.64;99685.63;8246828;28;20054;-72
2022/05/13 05:06:55;;;;;;;2.57;0.80;;;;;;;13.75;70.09;99690.66;8253681;28;20435;-72
2022/05/13 05:10:57;;;;;;;1635.20;762.83;;;;;;;13.92;70.05;99687.81;8238272;28;20042;-73
2022/05/13 05:14:59;;;;;;;;;;;;;;;14.13;68.41;99697.97;8235750;28;20092;-72
2022/05/13 05:19:01;;;;;;;423.70;35.17;;;;;;;14.42;67.62;99712.38;8213848;28;19996;-73
2022/05/13 05:23:03;;;;;;;17.00;15.85;;;;;;;14.76;65.76;99716.22;8253589;28;20056;-73
2022/05/13 05:27:05;;;;;;;153.40;144.70;;;;;;;15.25;64.23;99725.81;8256001;28;20077;-72
2022/05/13 05:31:07;;;;;;;;;;;;;;;15.80;60.68;99727.44;8253267;28;20648;-72
2022/05/13 05:35:12;;;;;;;65.75;60.88;;;;;;;16.19;58.51;99738.84;8255763;28;20713;-72
2022/05/13 05:39:14;;;;;;;542.60;141.77;;;;;;;16.21;58.33;99741.44;8254684;28;20042;-73
2022/05/13 05:43:17;;;;;;;172.85;100.47;;;;;;;16.14;57.20;99743.28;8257322;28;20073;-73
2022/05/13 05:47:22;;;;;;;82.80;61.63;;;;;;;16.41;56.94;99756.72;8239844;28;20061;-73
2022/05/13 05:51:24;;;;;;;137.05;52.83;;;;;;;16.72;56.03;99759.53;8248196;28;20061;-73
2022/05/13 05:59:46;;;;;;;320.27;175.38;;;;;;;17.49;52.76;99769.84;8257188;28;20339;-73
2022/05/13 06:03:47;;;;;;;1999.90;999.90;;;;;;;17.85;51.82;99782.91;8236632;28;20743;-73
2022/05/13 06:07:50;;;;;;;1999.90;999.90;;;;;;;17.90;50.49;99781.88;8234982;28;20057;-73
2022/05/13 06:11:51;;;;;;;1999.90;999.90;;;;;;;17.54;51.21;99786.31;8246158;28;20052;-73
2022/05/13 06:15:53;;;;;;;1999.90;999.90;;;;;;;17.08;52.11;99794.53;8243357;28;20042;-73
2022/05/13 06:19:54;;;;;;;1999.90;999.90;;;;;;;16.79;52.95;99817.03;8232019;28;20053;-73
2022/05/13 06:23:56;;;;;;;1999.90;999.90;;;;;;;16.55;52.52;99813.19;8244598;28;20162;-73
2022/05/13 06:27:59;;;;;;;1999.90;999.90;;;;;;;16.59;53.11;99817.47;8213865;28;20439;-73
2022/05/13 06:32:01;;;;;;;1999.90;999.90;;;;;;;16.72;53.37;99832.97;8245780;28;20186;-73
2022/05/13 06:36:03;;;;;;;1999.90;999.90;;;;;;;16.83;52.21;99826.56;8232645;28;20506;-74
2022/05/13 06:40:06;;;;;;;1999.90;999.90;;;;;;;17.26;50.67;99829.94;8232661;28;20331;-74
2022/05/13 06:44:10;;;;;;;1999.90;999.90;;;;;;;17.36;49.13;99832.28;8249288;28;20340;-73
2022/05/13 06:48:12;;;;;;;1999.90;999.90;;;;;;;17.70;48.26;99834.94;8225789;28;20046;-73
2022/05/13 06:52:14;;;;;;;1999.90;999.90;;;;;;;18.05;47.06;99841.03;8214853;28;20039;-71
2022/05/13 06:56:40;;;;;;;1999.90;999.90;;;;;;;18.18;46.57;99849.44;8261486;28;20618;-74
2022/05/13 07:00:44;;;;;;;1999.90;999.90;;;;;;;18.22;45.68;99844.03;8247239;28;20081;-75
2022/05/13 07:04:46;;;;;;;1999.90;999.90;;;;;;;18.29;44.86;99842.94;8247533;28;20596;-75
2022/05/13 07:08:49;;;;;;;;;;;;;;;18.74;44.75;99844.31;8247634;28;20105;-72
2022/05/13 07:12:51;;;;;;;1999.90;999.90;;;;;;;18.98;43.12;99856.72;8247105;28;20008;-73
2022/05/13 07:16:52;;;;;;;1999.90;999.90;;;;;;;19.21;42.68;99848.06;8264077;28;20509;-72
2022/05/13 07:20:54;;;;;;;1999.90;999.90;;;;;;;19.53;42.58;99841.75;8243527;28;20046;-73
2022/05/13 07:24:55;;;;;;;1999.90;999.90;;;;;;;19.42;43.52;99828.97;8236832;28;20430;-73
2022/05/13 07:28:57;;;;;;;1999.90;999.90;;;;;;;19.42;40.94;99834.22;8238852;28;20069;-71
2022/05/13 07:32:58;;;;;;;1999.90;999.90;;;;;;;19.59;42.12;99841.59;8246255;28;20125;-73
2022/05/13 07:37:00;;;;;;;1999.90;999.90;;;;;;;19.96;41.27;99840.31;8216664;28;20398;-72
2022/05/13 07:41:17;;;;;;;1999.90;999.90;;;;;;;20.01;41.16;99838.38;8240095;28;20152;-72
2022/05/13 07:45:19;;;;;;;1999.90;999.90;;;;;;;20.16;39.96;99843.97;8245583;28;20046;-72
2022/05/13 07:49:20;;;;;;;1999.90;999.90;;;;;;;20.33;39.12;99855.66;8244449;28;20689;-72
2022/05/13 07:53:22;;;;;;;1999.90;999.90;;;;;;;20.22;39.14;99856.91;8232551;28;20048;-73
2022/05/13 07:57:23;;;;;;;1999.90;999.90;;;;;;;20.37;39.70;99852.00;8242491;28;20161;-72
2022/05/13 08:01:25;;;;;;;1999.90;999.90;;;;;;;20.58;38.45;99856.50;8248397;28;20168;-72
2022/05/13 08:05:30;;;;;;;1999.90;999.90;;;;;;;20.65;38.35;99854.50;8249257;28;20066;-72
2022/05/13 08:09:31;;;;;;;1999.90;999.90;;;;;;;20.69;37.71;99842.91;8257832;28;20042;-72
2022/05/13 08:13:34;;;;;;;1999.90;999.90;;;;;;;20.82;37.96;99841.50;8248051;28;20149;-72
2022/05/13 08:17:35;;;;;;;1999.90;999.90;;;;;;;20.84;37.27;99849.38;8231290;28;20081;-72
2022/05/13 08:21:37;;;;;;;1999.90;999.90;;;;;;;20.96;36.95;99839.16;8228113;28;20042;-72
2022/05/13 08:25:39;;;;;;;1999.90;999.90;;;;;;;21.15;37.00;99843.72;8247703;28;20149;-72
2022/05/13 08:29:41;;;;;;;1999.90;999.90;;;;;;;21.10;35.36;99835.97;8220348;28;20621;-72
2022/05/13 08:33:43;;;;;;;1999.90;999.90;;;;;;;21.28;36.76;99831.75;8240106;28;20064;-72
2022/05/13 08:37:51;;;;;;;1999.90;999.90;;;;;;;21.54;36.03;99836.81;8243113;28;20445;-72
2022/05/13 08:42:22;;;;;;;1999.90;999.90;;;;;;;21.61;35.69;99826.84;8217953;28;20562;-72
2022/05/13 08:46:33;;;;;;;1999.90;999.90;;;;;;;21.69;36.51;99824.72;8245569;28;20141;-72
2022/05/13 08:50:53;;;;;;;1999.90;999.90;;;;;;;21.92;36.37;99827.25;8247175;28;20042;-72
2022/05/13 08:54:55;;;;;;;1999.90;999.90;;;;;;;21.83;35.33;99824.16;8243407;28;20051;-72
2022/05/13 08:59:11;;;;;;;1999.90;999.90;;;;;;;22.03;35.63;99826.78;8242099;28;20042;-72
2022/05/13 09:03:30;;;;;;;1999.90;999.90;;;;;;;22.25;36.33;99826.69;8244875;28;20074;-72
2022/05/13 09:07:32;;;;;;;1999.90;999.90;;;;;;;21.99;35.05;99822.56;8234886;28;20122;-72
2022/05/13 09:11:46;;;;;;;1999.90;999.90;;;;;;;21.94;36.49;99830.69;8243788;28;21303;-72
2022/05/13 09:15:52;;;;;;;1999.90;999.90;;;;;;;22.18;35.77;99834.06;8247689;28;20046;-72
2022/05/13 09:20:06;;;;;;;1999.90;999.90;;;;;;;22.06;35.59;99837.25;8249000;28;20042;-72
2022/05/13 09:24:08;;;;;;;1999.90;999.90;;;;;;;21.92;35.32;99837.84;8241475;28;20046;-72
2022/05/13 09:28:11;;;;;;;;;;;;;;;21.93;34.95;99849.28;8247918;28;20057;-72
2022/05/13 09:32:36;;;;;;;1999.90;999.90;;;;;;;22.09;36.53;99842.41;8247420;28;19922;-73
2022/05/13 09:36:38;;;;;;;1999.90;999.90;;;;;;;22.33;35.28;99836.94;8230347;28;20149;-74
2022/05/13 09:40:40;;;;;;;1999.90;999.90;;;;;;;22.48;35.41;99833.59;8240548;28;20443;-72
2022/05/13 09:44:42;;;;;;;1999.90;999.90;;;;;;;22.40;35.46;99838.38;8239443;28;20093;-74
2022/05/13 09:49:05;;;;;;;1999.90;999.90;;;;;;;22.35;36.21;99833.28;8243876;28;20082;-73
2022/05/13 09:53:16;;;;;;;1999.90;999.90;;;;;;;22.64;35.61;99839.91;8246134;28;20144;-73
2022/05/13 09:57:29;;;;;;;1999.90;999.90;;;;;;;22.79;35.76;99840.94;8241690;28;20137;-73
2022/05/13 10:01:30;;;;;;;1999.90;999.90;;;;;;;22.88;34.51;99827.31;8224591;28;20050;-74
2022/05/13 10:05:33;;;;;;;1999.90;999.90;;;;;;;23.04;33.42;99835.38;8223648;28;20494;-73
2022/05/13 10:14:03;;;;;;;1999.90;999.90;;;;;;;23.14;33.80;99836.66;8255750;28;20038;-74
2022/05/13 10:18:32;;;;;;;1999.90;999.90;;;;;;;23.24;34.47;99824.69;8241423;28;20074;-73
2022/05/13 10:22:44;;;;;;;1999.90;999.90;;;;;;;23.37;33.15;99820.50;8223301;28;20429;-71
2022/05/13 10:26:48;;;;;;;1999.90;999.90;;;;;;;23.46;33.00;99821.81;8246117;28;20058;-73
2022/05/13 10:30:56;;;;;;;1999.90;999.90;;;;;;;23.45;31.72;99820.94;8247016;28;20042;-73
2022/05/13 10:35:04;;;;;;;1999.90;999.90;;;;;;;23.23;31.39;99824.75;8229354;28;20069;-72
2022/05/13 10:39:19;;;;;;;1999.90;999.90;;;;;;;23.21;31.59;99816.88;8243356;28;20049;-72
2022/05/13 10:43:29;;;;;;;1999.90;999.90;;;;;;;23.06;31.41;99814.97;8248121;28;20133;-72
2022/05/13 10:47:48;;;;;;;1999.90;999.90;;;;;;;22.81;31.65;99813.50;8247471;28;20047;-72
2022/05/13 10:51:58;;;;;;;1999.90;999.90;;;;;;;23.09;32.95;99814.81;8249494;28;20903;-72
2022/05/13 10:56:18;;;;;;;1999.90;999.90;;;;;;;23.43;31.39;99804.25;8263347;28;20706;-72
2022/05/13 11:00:28;;;;;;;1999.90;999.90;;;;;;;23.57;31.78;99805.41;8232228;28;20042;-72
2022/05/13 11:04:42;;;;;;;1999.90;999.90;;;;;;;23.79;31.33;99806.00;8225954;28;20140;-72
2022/05/13 11:09:04;;;;;;;1999.90;999.90;;;;;;;23.76;30.53;99795.56;8247840;28;20062;-72
2022/05/13 11:13:28;;;;;;;1999.90;999.90;;;;;;;23.59;30.38;99798.22;8249465;28;20137;-73
2022/05/13 11:17:58;;;;;;;1999.90;999.90;;;;;;;23.50;30.74;99795.06;8250597;28;20042;-72
2022/05/13 11:22:09;;;;;;;1999.90;999.90;;;;;;;23.15;30.55;99783.56;8248727;28;20223;-73
2022/05/13 11:26:24;;;;;;;1999.90;999.90;;;;;;;23.37;31.79;99775.44;8250162;28;20088;-72
2022/05/13 11:30:51;;;;;;;1999.90;999.90;;;;;;;23.65;31.56;99793.44;8206878;28;20157;-72
2022/05/13 11:35:07;;;;;;;1999.90;999.90;;;;;;;23.64;30.41;99791.75;8237142;28;20903;-72
2022/05/13 11:39:40;;;;;;;1999.90;999.90;;;;;;;24.00;31.93;99788.94;8264955;28;20103;-72
2022/05/13 11:44:04;;;;;;;1999.90;999.90;;;;;;;24.17;29.22;99780.09;8212811;28;20498;-72
2022/05/13 11:48:21;;;;;;;1999.90;999.90;;;;;;;23.66;29.65;99786.34;8243665;28;20090;-73
2022/05/13 11:52:47;;;;;;;1999.90;999.90;;;;;;;23.84;30.25;99781.88;8254984;28;20631;-73
2022/05/13 11:56:49;;;;;;;1999.90;999.90;;;;;;;24.11;30.11;99780.44;8235465;28;20053;-73
2022/05/13 12:00:51;;;;;;;1999.90;999.90;;;;;;;24.33;29.59;99778.34;8240677;28;20053;-73
2022/05/13 12:05:10;;;;;;;1999.90;999.90;;;;;;;24.38;30.84;99770.97;8235714;28;20081;-73
2022/05/13 12:09:11;;;;;;;1999.90;999.90;;;;;;;24.41;30.19;99770.81;8227983;28;20038;-73
2022/05/13 12:13:32;;;;;;;1999.90;999.90;;;;;;;24.72;30.78;99761.13;8220622;28;20074;-73
2022/05/13 12:17:51;;;;;;;1999.90;999.90;;;;;;;24.62;29.54;99758.16;8202762;28;20049;-73
2022/05/13 12:22:07;;;;;;;1999.90;999.90;;;;;;;24.03;28.89;99759.59;8223549;28;20772;-73
2022/05/13 12:26:11;;;;;;;1999.90;999.90;;;;;;;23.88;29.96;99775.47;8259779;28;20074;-74
2022/05/13 12:30:36;;;;;;;1999.90;999.90;;;;;;;23.73;30.33;99764.75;8243738;28;20038;-73
2022/05/13 12:39:05;;;;;;;1999.90;999.90;;;;;;;24.08;29.39;99770.84;8242195;28;20082;-73
2022/05/13 12:43:16;;;;;;;1999.90;999.90;;;;;;;24.04;29.67;99761.31;8239336;28;20051;-73
2022/05/13 12:47:21;;;;;;;1999.90;999.90;;;;;;;24.14;30.37;99758.19;8254675;28;20086;-73
2022/05/13 12:51:33;;;;;;;1999.90;999.90;;;;;;;24.46;30.85;99753.78;8237987;28;20128;-72
2022/05/13 12:55:37;;;;;;;1999.90;999.90;;;;;;;24.46;28.86;99751.13;8241416;28;20169;-72
2022/05/13 12:59:43;;;;;;;1999.90;999.90;;;;;;;24.55;29.71;99748.81;8238368;28;20350;-71
2022/05/13 13:03:48;;;;;;;1999.90;999.90;;;;;;;24.30;30.19;99743.16;8241297;28;20050;-73
2022/05/13 13:07:55;;;;;;;1999.90;999.90;;;;;;;24.27;31.66;99752.13;8225173;28;20671;-72
2022/05/13 13:12:10;;;;;;;1999.90;999.90;;;;;;;24.44;30.53;99745.06;8241723;28;20084;-72
2022/05/13 13:16:22;;;;;;;1999.90;999.90;;;;;;;24.58;30.01;99738.00;8240776;28;20074;-73
2022/05/13 13:20:27;;;;;;;1999.90;999.90;;;;;;;24.66;28.52;99746.41;8240709;28;20046;-73
2022/05/13 13:24:33;;;;;;;1999.90;999.90;;;;;;;24.73;30.08;99740.75;8209620;28;20417;-73
2022/05/13 13:28:39;;;;;;;1999.90;999.90;;;;;;;24.81;30.93;99734.06;8222173;28;20743;-74
2022/05/13 13:32:45;;;;;;;1999.90;999.90;;;;;;;24.74;29.23;99732.69;8230894;28;20399;-73
2022/05/13 13:36:46;;;;;;;1999.90;999.90;;;;;;;24.80;30.49;99731.50;8250965;28;20502;-74
2022/05/13 13:41:08;;;;;;;1999.90;999.90;;;;;;;24.89;29.36;99721.19;8245167;28;20058;-72
2022/05/13 13:45:20;;;;;;;1999.90;999.90;;;;;;;24.86;29.56;99731.13;8247156;28;20042;-73
2022/05/13 13:49:36;;;;;;;1999.90;999.90;;;;;;;24.59;29.42;99738.88;8250276;28;20068;-73
2022/05/13 13:53:39;;;;;;;1999.90;999.90;;;;;;;24.22;29.95;99717.00;8243202;28;20077;-73
2022/05/13 13:58:20;;;;;;;1999.90;999.90;;;;;;;24.42;31.33;99721.25;8254572;28;20050;-72
2022/05/13 14:02:49;;;;;;;1999.90;999.90;;;;;;;24.55;29.72;99726.72;8240922;28;20053;-72
2022/05/13 14:06:53;;;;;;;1999.90;999.90;;;;;;;24.43;29.79;99727.41;8252090;28;20055;-73
2022/05/13 14:11:10;;;;;;;1999.90;999.90;;;;;;;24.59;30.67;99734.41;8254094;28;20043;-72
2022/05/13 14:15:18;;;;;;;1999.90;999.90;;;;;;;24.52;29.23;99730.41;8252308;28;20050;-73
2022/05/13 14:19:23;;;;;;;1999.90;999.90;;;;;;;24.60;29.28;99727.34;8234773;28;20142;-72
2022/05/13 14:23:31;;;;;;;1999.90;999.90;;;;;;;24.78;29.96;99725.44;8253286;28;20156;-72
2022/05/13 14:27:34;;;;;;;1999.90;999.90;;;;;;;24.56;28.71;99723.97;8219719;28;20081;-73
2022/05/13 14:31:38;;;;;;;1999.90;999.90;;;;;;;24.60;29.65;99729.97;8232137;28;20339;-73
2022/05/13 14:35:40;;;;;;;1999.90;999.90;;;;;;;24.51;28.54;99717.22;8242974;28;20537;-72
2022/05/13 14:39:50;;;;;;;;;;;;;;;24.62;29.37;99705.06;8245705;28;20729;-72
2022/05/13 14:43:55;;;;;;;1999.90;999.90;;;;;;;24.43;29.98;99722.13;8245069;28;19929;-73
2022/05/13 14:48:16;;;;;;;1999.90;999.90;;;;;;;24.69;30.35;99705.53;8253730;28;20057;-72
2022/05/13 14:52:27;;;;;;;1999.90;999.90;;;;;;;24.82;29.84;99703.91;8239152;28;20060;-73
2022/05/13 14:56:46;;;;;;;1999.90;999.90;;;;;;;25.04;28.55;99706.19;8252602;28;20122;-73
2022/05/13 15:00:50;;;;;;;1999.90;999.90;;;;;;;25.08;28.87;99709.50;8243272;28;20046;-73
2022/05/13 15:04:55;;;;;;;1999.90;999.90;;;;;;;24.95;28.01;99706.69;8225193;28;20133;-73
2022/05/13 15:09:08;;;;;;;1999.90;999.90;;;;;;;24.93;28.73;99709.44;8224013;28;20074;-73
2022/05/13 15:13:09;;;;;;;1999.90;999.90;;;;;;;25.10;28.52;99708.47;8223611;28;20071;-73
2022/05/13 15:17:14;;;;;;;1999.90;999.90;;;;;;;25.26;29.67;99701.31;8247852;28;20051;-73
2022/05/13 15:21:15;;;;;;;1999.90;999.90;;;;;;;25.18;27.85;99700.91;8243800;28;20113;-73
2022/05/13 15:25:17;;;;;;;1999.90;999.90;;;;;;;25.41;29.02;99707.50;8230732;28;20069;-73
2022/05/13 15:29:19;;;;;;;1999.90;999.90;;;;;;;25.37;28.07;99707.78;8247374;28;20073;-73
2022/05/13 15:33:25;;;;;;;1999.90;999.90;;;;;;;25.35;29.29;99705.22;8229200;28;20566;-73
2022/05/13 15:37:28;;;;;;;1999.90;999.90;;;;;;;25.54;29.55;99699.66;8240585;28;20050;-73
2022/05/13 15:41:30;;;;;;;1999.90;999.90;;;;;;;25.68;28.37;99699.69;8241268;28;20134;-73
2022/05/13 15:45:32;;;;;;;;;;;;;;;25.48;27.45;99705.31;8227281;28;20074;-73
2022/05/13 15:53:54;;;;;;;1999.90;999.90;;;;;;;25.46;28.11;99709.88;8238575;28;20104;-73
2022/05/13 15:58:04;;;;;;;1999.90;999.90;;;;;;;25.56;28.39;99700.41;8251562;28;20145;-73
2022/05/13 16:02:06;;;;;;;1999.90;999.90;;;;;;;25.58;28.79;99702.03;8224177;28;20070;-73
2022/05/13 16:06:07;;;;;;;1999.90;999.90;;;;;;;25.61;27.12;99700.97;8239554;28;20150;-73
2022/05/13 16:10:12;;;;;;;1999.90;999.90;;;;;;;25.45;28.28;99698.38;8219452;28;20375;-73
2022/05/13 16:14:19;;;;;;;1999.90;999.90;;;;;;;25.50;27.69;99703.44;8225407;28;20126;-73
2022/05/13 16:18:24;;;;;;;1999.90;999.90;;;;;;;25.38;28.38;99702.38;8224238;28;20038;-74
2022/05/13 16:22:26;;;;;;;1999.90;999.90;;;;;;;25.08;28.21;99694.41;8227471;28;20117;-73
2022/05/13 16:26:31;;;;;;;1999.90;999.90;;;;;;;24.53;29.04;99699.41;8240891;28;20073;-74
2022/05/13 16:30:34;;;;;;;1999.90;999.90;;;;;;;23.83;29.83;99696.16;8241387;28;20035;-73
2022/05/13 16:34:36;;;;;;;1999.90;999.90;;;;;;;23.31;29.66;99700.66;8239663;28;20062;-73
2022/05/13 16:38:38;;;;;;;1999.90;999.90;;;;;;;22.78;30.53;99706.84;8242676;28;20053;-73
2022/05/13 16:42:39;;;;;;;1999.90;999.90;;;;;;;22.38;31.09;99705.28;8239498;28;20702;-73
2022/05/13 16:46:41;;;;;;;1999.90;999.90;;;;;;;22.13;31.04;99703.81;8237585;28;20070;-72
2022/05/13 16:50:43;;;;;;;1999.90;999.90;;;;;;;21.96;31.83;99709.84;8236651;28;20046;-72
2022/05/13 16:54:45;;;;;;;1999.90;999.90;;;;;;;21.73;31.99;99714.47;8235315;28;20046;-72
2022/05/13 16:58:47;;;;;;;1999.90;999.90;;;;;;;21.47;32.68;99705.03;8254054;28;20073;-72
2022/05/13 17:02:54;;;;;;;1999.90;999.90;;;;;;;21.25;32.15;99707.75;8212256;28;20062;-73
2022/05/13 17:06:56;;;;;;;1999.90;999.90;;;;;;;21.05;32.80;99709.44;8234740;28;20070;-72
2022/05/13 17:19:44;;;;;;;1999.90;999.90;;;;;;;20.63;34.20;99709.41;8226618;28;20281;-72
2022/05/13 17:23:45;;;;;;;1999.90;999.90;;;;;;;20.45;36.65;99702.22;8223916;28;20498;-73
2022/05/13 17:27:50;;;;;;;1999.90;999.90;;;;;;;20.24;34.58;99701.25;8249529;28;20639;-73
2022/05/13 17:31:52;;;;;;;1999.90;999.90;;;;;;;20.10;36.08;99701.78;8244006;28;20487;-72
2022/05/13 17:35:55;;;;;;;1999.90;999.90;;;;;;;19.98;36.81;99707.53;8243880;28;20070;-73
2022/05/13 17:39:59;;;;;;;1999.90;999.90;;;;;;;19.85;36.68;99707.13;8247740;28;20727;-73
2022/05/13 17:44:00;;;;;;;1999.90;999.90;;;;;;;19.73;38.02;99707.56;8229894;28;20890;-73
2022/05/13 17:48:04;;;;;;;1999.90;999.90;;;;;;;19.57;39.57;99717.84;8243515;28;20054;-73
2022/05/13 17:52:08;;;;;;;1999.90;999.90;;;;;;;19.39;40.23;99702.66;8230397;28;20053;-73
2022/05/13 17:56:09;;;;;;;1999.90;999.90;;;;;;;19.16;42.16;99702.56;8221237;28;20046;-73
2022/05/13 18:00:14;;;;;;;1999.90;999.90;;;;;;;18.94;43.31;99705.09;8241959;28;21602;-73
2022/05/13 18:04:16;;;;;;;1999.90;999.90;;;;;;;18.76;43.79;99716.22;8228613;28;20054;-74
2022/05/13 18:08:18;;;;;;;1999.90;999.90;;;;;;;18.61;46.19;99715.75;8241176;28;20077;-73
2022/05/13 18:12:19;;;;;;;1999.90;999.90;;;;;;;18.41;46.69;99711.13;8226596;28;20105;-73
2022/05/13 18:16:21;;;;;;;1999.90;999.90;;;;;;;18.17;48.10;99708.41;8218741;28;20082;-73
2022/05/13 18:20:23;;;;;;;1999.90;999.90;;;;;;;17.91;48.98;99701.28;8242013;28;20054;-73
2022/05/13 18:24:24;;;;;;;1999.90;999.90;;;;;;;17.75;49.68;99717.47;8222408;28;20074;-73
2022/05/13 18:28:26;;;;;;;1999.90;999.90;;;;;;;17.55;50.32;99716.28;8244246;28;20077;-73
2022/05/13 18:32:28;;;;;;;1999.90;999.90;;;;;;;17.25;49.89;99710.97;8218637;28;20438;-73
2022/05/13 18:36:30;;;;;;;1999.90;999.90;;;;;;;17.04;50.24;99722.00;8248051;28;20062;-73
2022/05/13 18:49:14;;;;;;;1999.90;999.90;;;;;;;16.40;51.74;99728.78;8250209;28;20081;-74
2022/05/13 18:53:15;;;;;;;1999.90;999.90;;;;;;;16.20;52.25;99732.72;8247526;28;20081;-73
2022/05/13 18:57:21;;;;;;;1999.90;999.90;;;;;;;16.05;52.65;99727.78;8257636;28;20503;-73
2022/05/13 19:01:23;;;;;;;1999.90;999.90;;;;;;;15.84;53.51;99730.88;8229535;28;20054;-74
2022/05/13 19:05:25;;;;;;;1999.90;999.90;;;;;;;15.73;54.31;99732.81;8231683;28;20544;-73
2022/05/13 19:09:26;;;;;;;1999.90;999.90;;;;;;;15.54;55.00;99735.75;8249886;28;20506;-72
2022/05/13 19:13:29;;;;;;;1999.90;999.90;;;;;;;15.42;55.11;99746.44;8242916;28;20050;-72
2022/05/13 19:17:30;;;;;;;1999.90;999.90;;;;;;;15.25;55.75;99740.66;8225516;28;20078;-72
2022/05/13 19:21:33;;;;;;;1999.90;999.90;;;;;;;15.09;55.98;99745.31;8250576;28;20078;-72